createdAt,value
2019-03-18T00:00:35.727Z,19.87
2019-03-18T00:03:08.394Z,18.67
2019-03-18T00:05:40.577Z,21.53
2019-03-18T00:08:13.516Z,19.67
2019-03-18T00:10:44.699Z,23.20
2019-03-18T00:13:16.047Z,16.13
2019-03-18T00:15:49.247Z,20.43
2019-03-18T00:18:22.692Z,16.57
2019-03-18T00:20:56.944Z,25.40
2019-03-18T00:23:28.104Z,36.03
2019-03-18T00:26:00.186Z,16.37
2019-03-18T00:28:31.152Z,17.27
2019-03-18T00:31:05.740Z,16.73
2019-03-18T00:33:36.850Z,29.90
2019-03-18T00:36:11.429Z,17.70
2019-03-18T00:38:45.086Z,28.27
2019-03-18T00:41:16.724Z,21.97
2019-03-18T00:43:46.625Z,18.13
2019-03-18T00:46:18.624Z,11.63
2019-03-18T00:48:54.887Z,16.60
2019-03-18T00:51:28.858Z,20.27
2019-03-18T00:54:02.842Z,15.17
2019-03-18T00:56:34.958Z,32.33
2019-03-18T00:59:19.936Z,30.10
2019-03-18T01:01:53.116Z,27.97
2019-03-18T01:04:35.224Z,22.77
2019-03-18T01:07:08.925Z,27.30
2019-03-18T01:09:38.566Z,24.80
2019-03-18T01:12:16.181Z,16.53
2019-03-18T01:14:51.064Z,26.13
2019-03-18T01:17:22.228Z,33.50
2019-03-18T01:19:53.048Z,17.33
2019-03-18T01:22:25.659Z,19.13
2019-03-18T01:24:55.917Z,12.17
2019-03-18T01:27:26.148Z,21.80
2019-03-18T01:29:56.186Z,11.07
2019-03-18T01:32:27.445Z,19.63
2019-03-18T01:34:58.347Z,19.57
2019-03-18T01:37:31.279Z,10.53
2019-03-18T01:40:24.393Z,15.57
2019-03-18T01:42:53.251Z,11.73
2019-03-18T01:45:22.885Z,18.00
2019-03-18T01:47:51.847Z,12.87
2019-03-18T01:50:20.685Z,21.13
2019-03-18T01:52:49.846Z,14.63
2019-03-18T01:55:18.674Z,22.37
2019-03-18T01:57:47.515Z,26.40
2019-03-18T02:00:16.825Z,21.53
2019-03-18T02:02:46.599Z,16.80
2019-03-18T02:05:15.487Z,21.63
2019-03-18T02:07:44.659Z,18.33
2019-03-18T02:10:14.881Z,17.90
2019-03-18T02:12:43.819Z,20.80
2019-03-18T02:15:14.333Z,22.47
2019-03-18T02:17:44.512Z,16.20
2019-03-18T02:20:15.243Z,23.87
2019-03-18T02:23:03.345Z,21.57
2019-03-18T02:25:32.192Z,20.40
2019-03-18T02:28:00.925Z,30.80
2019-03-18T02:30:31.683Z,25.63
2019-03-18T02:33:00.248Z,11.37
2019-03-18T02:35:29.051Z,19.43
2019-03-18T02:37:57.882Z,19.83
2019-03-18T02:40:26.714Z,21.10
2019-03-18T02:42:55.571Z,14.83
2019-03-18T02:45:24.934Z,24.50
2019-03-18T02:47:54.782Z,16.83
2019-03-18T02:50:23.597Z,22.50
2019-03-18T02:52:52.511Z,19.80
2019-03-18T02:55:21.240Z,16.67
2019-03-18T02:57:50.079Z,23.47
2019-03-18T03:00:19.267Z,16.90
2019-03-18T03:02:49.328Z,22.03
2019-03-18T03:05:18.149Z,20.27
2019-03-18T03:07:47.861Z,17.10
2019-03-18T03:10:16.724Z,11.13
2019-03-18T03:12:45.801Z,14.03
2019-03-18T03:15:15.068Z,12.27
2019-03-18T03:17:45.170Z,8.73
2019-03-18T03:20:13.973Z,12.50
2019-03-18T03:22:42.824Z,16.23
2019-03-18T03:25:12.150Z,12.70
2019-03-18T03:27:42.005Z,18.47
2019-03-18T03:30:15.401Z,13.83
2019-03-18T03:32:44.565Z,13.67
2019-03-18T03:35:14.578Z,19.00
2019-03-18T03:37:43.471Z,16.67
2019-03-18T03:40:12.668Z,17.93
2019-03-18T03:42:41.504Z,25.10
2019-03-18T03:45:14.517Z,15.67
2019-03-18T03:48:02.582Z,14.40
2019-03-18T03:50:31.422Z,11.63
2019-03-18T03:53:00.225Z,9.50
2019-03-18T03:55:29.063Z,16.67
2019-03-18T03:57:57.922Z,11.60
2019-03-18T04:00:27.099Z,15.87
2019-03-18T04:02:55.939Z,12.83
2019-03-18T04:05:25.072Z,7.17
2019-03-18T04:07:53.838Z,11.80
2019-03-18T04:10:22.645Z,6.63
2019-03-18T04:12:51.514Z,10.23
2019-03-18T04:15:20.319Z,8.13
2019-03-18T04:17:49.140Z,5.50
2019-03-18T04:20:18.190Z,11.87
2019-03-18T04:22:47.109Z,8.97
2019-03-18T04:25:15.877Z,4.17
2019-03-18T04:27:44.714Z,10.30
2019-03-18T04:30:16.791Z,10.40
2019-03-18T04:32:45.644Z,5.20
2019-03-18T04:35:14.466Z,13.97
2019-03-18T04:37:43.348Z,9.90
2019-03-18T04:40:12.410Z,6.80
2019-03-18T04:42:41.648Z,7.53
2019-03-18T04:45:11.060Z,8.30
2019-03-18T04:47:39.777Z,5.37
2019-03-18T04:50:10.500Z,6.17
2019-03-18T04:52:39.330Z,12.63
2019-03-18T04:55:08.901Z,7.67
2019-03-18T04:57:37.682Z,9.53
2019-03-18T05:00:09.049Z,3.87
2019-03-18T05:02:38.807Z,8.13
2019-03-18T05:05:07.684Z,12.70
2019-03-18T05:07:36.530Z,13.47
2019-03-18T05:10:08.045Z,15.03
2019-03-18T05:12:38.404Z,5.50
2019-03-18T05:15:08.803Z,7.43
2019-03-18T05:17:38.017Z,7.90
2019-03-18T05:20:11.251Z,9.40
2019-03-18T05:22:41.071Z,10.70
2019-03-18T05:25:10.683Z,12.30
2019-03-18T05:27:39.522Z,3.90
2019-03-18T05:30:15.048Z,4.83
2019-03-18T05:32:43.891Z,7.90
2019-03-18T05:35:12.695Z,5.70
2019-03-18T05:37:41.913Z,4.87
2019-03-18T05:40:12.350Z,5.10
2019-03-18T05:42:41.545Z,7.63
2019-03-18T05:45:11.402Z,6.27
2019-03-18T05:47:40.327Z,6.93
2019-03-18T05:50:10.680Z,2.30
2019-03-18T05:52:39.514Z,5.43
2019-03-18T05:55:10.059Z,3.97
2019-03-18T05:57:40.831Z,8.73
2019-03-18T06:00:15.486Z,6.80
2019-03-18T06:02:46.796Z,5.80
2019-03-18T06:05:15.098Z,6.83
2019-03-18T06:07:44.473Z,9.30
2019-03-18T06:10:13.885Z,8.40
2019-03-18T06:12:42.781Z,12.50
2019-03-18T06:15:14.564Z,8.60
2019-03-18T06:17:52.192Z,3.53
2019-03-18T06:20:14.049Z,6.90
2019-03-18T06:22:42.991Z,6.53
2019-03-18T06:25:11.798Z,8.60
2019-03-18T06:27:40.898Z,9.40
2019-03-18T06:30:14.404Z,6.00
2019-03-18T06:32:43.233Z,3.53
2019-03-18T06:35:13.336Z,4.63
2019-03-18T06:37:42.471Z,3.87
2019-03-18T06:40:13.057Z,4.87
2019-03-18T06:42:41.892Z,4.63
2019-03-18T06:45:14.014Z,9.07
2019-03-18T06:47:43.192Z,2.43
2019-03-18T06:50:33.000Z,3.87
2019-03-18T06:53:02.146Z,8.90
2019-03-18T06:55:30.946Z,7.87
2019-03-18T06:57:59.801Z,4.20
2019-03-18T07:00:28.636Z,11.63
2019-03-18T07:02:58.682Z,4.90
2019-03-18T07:05:28.497Z,8.53
2019-03-18T07:07:57.218Z,6.90
2019-03-18T07:10:25.972Z,8.57
2019-03-18T07:12:54.766Z,3.60
2019-03-18T07:15:23.593Z,10.10
2019-03-18T07:17:53.913Z,6.47
2019-03-18T07:20:22.757Z,5.63
2019-03-18T07:22:51.790Z,3.47
2019-03-18T07:25:20.594Z,5.00
2019-03-18T07:27:49.431Z,5.27
2019-03-18T07:30:18.277Z,6.20
2019-03-18T07:32:47.077Z,3.00
2019-03-18T07:35:15.894Z,8.33
2019-03-18T07:37:45.706Z,5.40
2019-03-18T07:40:15.728Z,14.80
2019-03-18T07:42:44.579Z,10.37
2019-03-18T07:45:16.102Z,8.87
2019-03-18T07:47:45.149Z,8.37
2019-03-18T07:50:15.086Z,3.50
2019-03-18T07:52:44.941Z,6.17
2019-03-18T07:55:14.214Z,4.73
2019-03-18T07:57:43.499Z,4.97
2019-03-18T08:00:14.044Z,6.37
2019-03-18T08:02:43.173Z,1.80
2019-03-18T08:05:12.089Z,5.60
2019-03-18T08:07:40.889Z,8.60
2019-03-18T08:10:12.864Z,5.60
2019-03-18T08:12:41.663Z,8.57
2019-03-18T08:15:11.710Z,3.70
2019-03-18T08:17:40.488Z,10.07
2019-03-18T08:20:13.816Z,9.83
2019-03-18T08:22:42.598Z,5.53
2019-03-18T08:25:11.635Z,5.77
2019-03-18T08:27:40.465Z,3.23
2019-03-18T08:30:19.571Z,5.60
2019-03-18T08:32:50.088Z,7.50
2019-03-18T08:35:19.298Z,6.63
2019-03-18T08:37:49.537Z,6.10
2019-03-18T08:40:18.453Z,4.70
2019-03-18T08:42:47.677Z,1.50
2019-03-18T08:45:16.516Z,10.03
2019-03-18T08:47:45.372Z,2.63
2019-03-18T08:50:14.430Z,7.93
2019-03-18T08:52:43.650Z,3.60
2019-03-18T08:55:12.741Z,5.03
2019-03-18T08:57:41.582Z,3.47
2019-03-18T09:00:15.791Z,5.20
2019-03-18T09:02:44.616Z,5.53
2019-03-18T09:05:13.625Z,6.97
2019-03-18T09:07:43.912Z,4.50
2019-03-18T09:10:14.020Z,6.50
2019-03-18T09:12:42.862Z,9.07
2019-03-18T09:15:12.564Z,6.63
2019-03-18T09:17:53.643Z,3.97
2019-03-18T09:20:24.158Z,3.70
2019-03-18T09:22:52.942Z,7.27
2019-03-18T09:25:21.720Z,4.40
2019-03-18T09:27:50.612Z,4.97
2019-03-18T09:30:20.565Z,7.80
2019-03-18T09:32:49.383Z,5.83
2019-03-18T09:35:18.501Z,9.50
2019-03-18T09:37:47.713Z,6.70
2019-03-18T09:40:16.947Z,7.13
2019-03-18T09:42:46.110Z,7.57
2019-03-18T09:45:16.280Z,3.00
2019-03-18T09:47:45.057Z,1.97
2019-03-18T09:50:14.667Z,7.93
2019-03-18T09:52:43.819Z,4.70
2019-03-18T09:55:13.156Z,10.37
2019-03-18T09:57:43.199Z,7.60
2019-03-18T10:00:14.440Z,3.10
2019-03-18T10:02:43.667Z,4.40
2019-03-18T10:05:12.463Z,11.00
2019-03-18T10:07:41.304Z,8.37
2019-03-18T10:10:11.510Z,6.00
2019-03-18T10:12:40.349Z,7.67
2019-03-18T10:15:17.551Z,6.17
2019-03-18T10:17:46.448Z,4.73
2019-03-18T10:20:15.251Z,6.97
2019-03-18T10:22:44.086Z,4.10
2019-03-18T10:25:12.854Z,9.23
2019-03-18T10:27:41.694Z,7.47
2019-03-18T10:30:12.772Z,4.37
2019-03-18T10:32:41.561Z,8.43
2019-03-18T10:35:10.909Z,8.57
2019-03-18T10:37:39.717Z,5.30
2019-03-18T10:40:14.929Z,1.52
2019-03-18T10:42:43.736Z,3.60
2019-03-18T10:45:13.342Z,6.70
2019-03-18T10:47:43.560Z,3.02
2019-03-18T10:50:16.395Z,7.42
2019-03-18T10:52:45.256Z,9.00
2019-03-18T10:55:14.429Z,2.02
2019-03-18T10:57:43.252Z,3.30
2019-03-18T11:00:14.850Z,6.60
2019-03-18T11:02:45.131Z,2.62
2019-03-18T11:05:14.816Z,3.35
2019-03-18T11:07:43.641Z,3.30
2019-03-18T11:10:13.924Z,3.92
2019-03-18T11:12:42.632Z,11.12
2019-03-18T11:15:16.798Z,2.42
2019-03-18T11:17:46.270Z,3.85
2019-03-18T11:20:17.099Z,3.67
2019-03-18T11:22:45.907Z,3.77
2019-03-18T11:25:15.569Z,6.45
2019-03-18T11:27:44.422Z,1.65
2019-03-18T11:30:20.246Z,3.70
2019-03-18T11:32:49.090Z,3.80
2019-03-18T11:35:17.923Z,2.62
2019-03-18T11:37:46.855Z,1.20
2019-03-18T11:40:19.849Z,2.75
2019-03-18T11:42:48.758Z,1.22
2019-03-18T11:45:18.092Z,4.37
2019-03-18T11:47:47.196Z,3.83
2019-03-18T11:50:20.580Z,1.00
2019-03-18T11:52:49.370Z,0.68
2019-03-18T11:55:20.486Z,4.00
2019-03-18T11:57:50.226Z,3.37
2019-03-18T12:00:20.582Z,1.52
2019-03-18T12:02:49.381Z,1.00
2019-03-18T12:05:23.248Z,1.57
2019-03-18T12:07:52.438Z,10.25
2019-03-18T12:10:25.116Z,3.35
2019-03-18T12:12:52.352Z,2.95
2019-03-18T12:15:23.557Z,3.45
2019-03-18T12:17:53.662Z,2.90
2019-03-18T12:20:25.459Z,2.70
2019-03-18T12:22:53.432Z,5.55
2019-03-18T12:25:22.327Z,5.60
2019-03-18T12:27:51.223Z,4.22
2019-03-18T12:30:27.916Z,2.40
2019-03-18T12:32:56.757Z,3.83
2019-03-18T12:35:25.566Z,8.33
2019-03-18T12:37:54.482Z,3.55
2019-03-18T12:40:23.683Z,2.37
2019-03-18T12:42:52.470Z,2.52
2019-03-18T12:45:22.118Z,1.10
2019-03-18T12:47:50.910Z,4.40
2019-03-18T12:50:43.190Z,4.03
2019-03-18T12:52:54.856Z,5.83
2019-03-18T12:55:23.684Z,1.95
2019-03-18T12:57:52.503Z,1.77
2019-03-18T13:00:27.427Z,1.00
2019-03-18T13:02:56.420Z,2.00
2019-03-18T13:05:25.290Z,6.90
2019-03-18T13:07:54.068Z,2.05
2019-03-18T13:10:22.917Z,1.10
2019-03-18T13:12:51.707Z,3.25
2019-03-18T13:15:21.242Z,1.22
2019-03-18T13:17:50.106Z,1.77
2019-03-18T13:20:20.417Z,1.15
2019-03-18T13:22:49.294Z,1.42
2019-03-18T13:25:18.098Z,3.58
2019-03-18T13:27:46.935Z,2.75
2019-03-18T13:30:23.454Z,1.87
2019-03-18T13:32:52.361Z,2.60
2019-03-18T13:35:21.154Z,4.17
2019-03-18T13:37:50.021Z,4.10
2019-03-18T13:40:19.573Z,4.97
2019-03-18T13:42:48.406Z,2.05
2019-03-18T13:45:21.501Z,2.90
2019-03-18T13:47:50.490Z,3.47
2019-03-18T13:50:22.519Z,4.17
2019-03-18T13:52:51.335Z,7.35
2019-03-18T13:55:20.711Z,2.22
2019-03-18T13:57:49.646Z,1.30
2019-03-18T14:00:22.579Z,5.05
2019-03-18T14:02:51.399Z,4.08
2019-03-18T14:05:20.247Z,3.67
2019-03-18T14:07:59.696Z,3.60
2019-03-18T14:10:23.411Z,1.32
2019-03-18T14:12:52.610Z,4.70
2019-03-18T14:15:23.516Z,3.52
2019-03-18T14:17:52.356Z,7.72
2019-03-18T14:20:30.507Z,10.65
2019-03-18T14:22:59.321Z,8.48
2019-03-18T14:25:28.245Z,6.12
2019-03-18T14:27:57.070Z,8.28
2019-03-18T14:30:25.869Z,5.70
2019-03-18T14:32:56.024Z,5.72
2019-03-18T14:35:24.805Z,3.08
2019-03-18T14:37:53.654Z,6.15
2019-03-18T14:40:24.734Z,8.13
2019-03-18T14:42:54.057Z,5.75
2019-03-18T14:45:25.857Z,7.80
2019-03-18T14:47:54.643Z,3.42
2019-03-18T14:50:23.461Z,7.90
2019-03-18T14:52:52.661Z,5.33
2019-03-18T14:55:21.467Z,5.08
2019-03-18T14:57:50.253Z,7.40
2019-03-18T15:00:24.160Z,3.80
2019-03-18T15:02:52.995Z,9.90
2019-03-18T15:05:21.732Z,4.37
2019-03-18T15:07:50.545Z,9.45
2019-03-18T15:10:23.428Z,3.35
2019-03-18T15:12:52.163Z,2.95
2019-03-18T15:15:21.361Z,7.12
2019-03-18T15:17:50.167Z,2.47
2019-03-18T15:20:21.476Z,5.60
2019-03-18T15:22:50.283Z,6.72
2019-03-18T15:25:22.052Z,12.15
2019-03-18T15:27:51.096Z,8.88
2019-03-18T15:30:21.995Z,5.65
2019-03-18T15:32:50.794Z,9.15
2019-03-18T15:35:19.596Z,4.85
2019-03-18T15:37:48.392Z,3.02
2019-03-18T15:40:19.589Z,3.35
2019-03-18T15:42:50.130Z,4.28
2019-03-18T15:45:25.237Z,4.97
2019-03-18T15:47:56.608Z,4.53
2019-03-18T15:50:28.545Z,4.37
2019-03-18T15:52:59.225Z,9.55
2019-03-18T15:55:33.687Z,2.20
2019-03-18T15:58:04.757Z,9.43
2019-03-18T16:00:36.546Z,3.95
2019-03-18T16:03:06.205Z,2.45
2019-03-18T16:05:37.877Z,2.97
2019-03-18T16:08:07.492Z,2.45
2019-03-18T16:10:36.706Z,4.47
2019-03-18T16:13:07.985Z,5.25
2019-03-18T16:15:39.356Z,2.62
2019-03-18T16:18:10.276Z,4.53
2019-03-18T16:20:42.767Z,5.80
2019-03-18T16:23:12.782Z,2.50
2019-03-18T16:25:43.953Z,3.40
2019-03-18T16:28:15.296Z,4.33
2019-03-18T16:30:46.074Z,5.73
2019-03-18T16:33:17.588Z,2.80
2019-03-18T16:35:50.849Z,1.92
2019-03-18T16:38:22.209Z,5.20
2019-03-18T16:40:51.532Z,4.95
2019-03-18T16:43:20.605Z,2.72
2019-03-18T16:45:55.032Z,7.85
2019-03-18T16:48:27.295Z,1.92
2019-03-18T16:50:58.030Z,7.12
2019-03-18T16:53:31.122Z,8.13
2019-03-18T16:56:05.944Z,11.35
2019-03-18T16:58:37.324Z,4.42
2019-03-18T17:01:10.906Z,7.55
2019-03-18T17:03:41.638Z,6.05
2019-03-18T17:06:12.905Z,3.47
2019-03-18T17:08:47.562Z,4.67
2019-03-18T17:11:19.810Z,5.17
2019-03-18T17:13:50.070Z,2.72
2019-03-18T17:16:22.784Z,6.83
2019-03-18T17:18:53.900Z,13.60
2019-03-18T17:21:23.938Z,6.37
2019-03-18T17:26:42.508Z,2.58
2019-03-18T17:29:18.346Z,12.37
2019-03-18T17:31:51.077Z,13.43
2019-03-18T17:34:21.204Z,11.08
2019-03-18T17:36:50.119Z,6.20
2019-03-18T17:39:20.910Z,5.37
2019-03-18T17:41:50.597Z,9.35
2019-03-18T17:44:20.953Z,8.77
2019-03-18T17:46:52.871Z,5.45
2019-03-18T17:49:25.322Z,7.57
2019-03-18T17:51:55.528Z,9.55
2019-03-18T17:54:27.441Z,11.87
2019-03-18T17:57:07.120Z,8.93
2019-03-18T17:59:29.882Z,7.20
2019-03-18T18:02:01.524Z,10.30
2019-03-18T18:04:33.223Z,15.23
2019-03-18T18:07:04.004Z,9.93
2019-03-18T18:09:34.859Z,9.87
2019-03-18T18:12:04.681Z,7.10
2019-03-18T18:14:39.991Z,8.33
2019-03-18T18:17:13.837Z,11.70
2019-03-18T18:19:43.203Z,10.63
2019-03-18T18:22:14.530Z,10.33
2019-03-18T18:24:45.776Z,4.43
2019-03-18T18:27:19.264Z,5.53
2019-03-18T18:29:52.172Z,10.27
2019-03-18T18:32:23.318Z,7.25
2019-03-18T18:34:54.235Z,7.47
2019-03-18T18:37:24.982Z,9.23
2019-03-18T18:39:56.323Z,9.37
2019-03-18T18:42:29.248Z,11.27
2019-03-18T18:45:03.396Z,14.47
2019-03-18T18:47:33.460Z,15.27
2019-03-18T18:50:10.498Z,2.77
2019-03-18T18:52:44.261Z,16.43
2019-03-18T18:55:17.284Z,8.03
2019-03-18T18:57:53.862Z,4.60
2019-03-18T19:00:27.604Z,13.03
2019-03-18T19:02:59.175Z,4.50
2019-03-18T19:05:30.092Z,6.23
2019-03-18T19:08:02.626Z,10.40
2019-03-18T19:10:37.595Z,4.00
2019-03-18T19:13:06.497Z,5.43
2019-03-18T19:15:44.918Z,16.97
2019-03-18T19:18:15.775Z,9.00
2019-03-18T19:20:46.090Z,14.80
2019-03-18T19:23:19.062Z,10.80
2019-03-18T19:25:51.778Z,13.00
2019-03-18T19:28:23.392Z,3.07
2019-03-18T19:30:54.690Z,5.57
2019-03-18T19:33:26.928Z,11.03
2019-03-18T19:35:57.618Z,14.00
2019-03-18T19:38:26.982Z,11.47
2019-03-18T19:40:58.855Z,7.27
2019-03-18T19:43:30.721Z,10.20
2019-03-18T19:46:04.239Z,8.30
2019-03-18T19:48:46.733Z,10.20
2019-03-18T19:51:21.303Z,12.47
2019-03-18T19:53:52.573Z,6.90
2019-03-18T19:56:23.170Z,12.50
2019-03-18T19:58:56.156Z,8.20
2019-03-18T20:01:25.844Z,6.90
2019-03-18T20:03:56.405Z,6.93
2019-03-18T20:06:29.533Z,5.13
2019-03-18T20:09:01.647Z,7.27
2019-03-18T20:11:32.000Z,5.17
2019-03-18T20:14:02.290Z,13.47
2019-03-18T20:16:33.637Z,4.40
2019-03-18T20:19:03.921Z,9.07
2019-03-18T20:21:38.046Z,9.30
2019-03-18T20:24:09.410Z,16.13
2019-03-18T20:26:40.959Z,11.53
2019-03-18T20:29:12.640Z,8.10
2019-03-18T20:31:43.807Z,9.30
2019-03-18T20:34:14.735Z,11.00
2019-03-18T20:36:46.292Z,10.30
2019-03-18T20:39:21.462Z,13.17
2019-03-18T20:41:51.381Z,16.30
2019-03-18T20:44:25.067Z,3.60
2019-03-18T20:46:58.951Z,17.60
2019-03-18T20:49:30.762Z,9.43
2019-03-18T20:52:01.498Z,7.20
2019-03-18T20:54:37.371Z,13.77
2019-03-18T20:57:06.812Z,8.60
2019-03-18T20:59:37.844Z,5.93
2019-03-18T21:02:07.858Z,7.80
2019-03-18T21:04:39.102Z,7.80
2019-03-18T21:07:10.287Z,6.23
2019-03-18T21:09:42.990Z,5.20
2019-03-18T21:12:13.524Z,15.00
2019-03-18T21:14:45.765Z,6.43
2019-03-18T21:17:16.646Z,5.03
2019-03-18T21:19:48.301Z,15.27
2019-03-18T21:22:19.156Z,3.67
2019-03-18T21:24:50.324Z,11.70
2019-03-18T21:27:26.355Z,12.90
2019-03-18T21:29:57.684Z,17.77
2019-03-18T21:32:26.647Z,10.07
2019-03-18T21:34:55.840Z,8.70
2019-03-18T21:37:29.121Z,13.50
2019-03-18T21:39:58.950Z,13.53
2019-03-18T21:42:33.012Z,25.73
2019-03-18T21:45:02.231Z,10.97
2019-03-18T21:47:32.991Z,12.57
2019-03-18T21:50:06.099Z,7.53
2019-03-18T21:52:37.034Z,8.43
2019-03-18T21:55:08.354Z,10.83
2019-03-18T21:57:37.410Z,9.50
2019-03-18T22:00:12.745Z,11.70
2019-03-18T22:02:44.105Z,12.37
2019-03-18T22:05:16.280Z,15.40
2019-03-18T22:07:48.924Z,14.63
2019-03-18T22:10:19.441Z,13.23
2019-03-18T22:12:50.431Z,9.57
2019-03-18T22:15:20.199Z,7.37
2019-03-18T22:17:49.139Z,16.37
2019-03-18T22:20:22.363Z,18.20
2019-03-18T22:22:52.391Z,16.50
2019-03-18T22:25:22.860Z,11.53
2019-03-18T22:27:53.990Z,15.60
2019-03-18T22:30:22.982Z,8.93
2019-03-18T22:32:54.757Z,9.73
2019-03-18T22:35:26.736Z,10.97
2019-03-18T22:37:55.672Z,15.03
2019-03-18T22:40:28.796Z,17.27
2019-03-18T22:43:00.119Z,17.97
2019-03-18T22:45:31.713Z,13.53
2019-03-18T22:48:02.810Z,17.50
2019-03-18T22:50:35.534Z,18.77
2019-03-18T22:53:07.048Z,19.37
2019-03-18T22:55:37.343Z,10.10
2019-03-18T22:58:08.676Z,21.47
2019-03-18T23:00:39.340Z,13.93
2019-03-18T23:03:13.832Z,19.17
2019-03-18T23:05:44.501Z,9.80
2019-03-18T23:08:15.773Z,23.07
2019-03-18T23:10:50.955Z,20.30
2019-03-18T23:13:20.981Z,10.40
2019-03-18T23:15:50.205Z,16.20
2019-03-18T23:18:23.411Z,14.10
2019-03-18T23:20:54.097Z,18.13
2019-03-18T23:23:24.396Z,12.60
2019-03-18T23:25:57.893Z,10.33
2019-03-18T23:28:30.076Z,12.37
2019-03-18T23:31:00.346Z,15.87
2019-03-18T23:33:35.372Z,13.47
2019-03-18T23:36:08.148Z,5.63
2019-03-18T23:38:39.369Z,8.27
2019-03-18T23:41:10.106Z,9.37
2019-03-18T23:43:39.700Z,9.13
2019-03-18T23:46:12.385Z,9.03
2019-03-18T23:48:41.913Z,11.10
2019-03-18T23:51:14.125Z,6.20
2019-03-18T23:53:46.054Z,6.33
2019-03-18T23:56:18.243Z,5.40
2019-03-18T23:58:50.914Z,6.60
